Time;durP1;ratioP1;P1;durP2;ratioP2;P2;SDS_P1;SDS_P2;PMS_P1;PMS_P2;Temp;Humidity;BMP_temperature;BMP_pressure;BME280_temperature;BME280_humidity;BME280_pressure;Samples;Min_cycle;Max_cycle;Signal;HPM_P1;HPM_P2
2023/07/14 00:00:28;;;;;;;10.57;5.85;;;18.30;90.30;;;;;;5053068;28;20033;-75
2023/07/14 00:02:55;;;;;;;9.90;5.35;;;18.30;90.40;;;;;;5052708;28;20045;-76
2023/07/14 00:05:26;;;;;;;8.80;5.10;;;18.30;90.50;;;;;;5036110;28;20021;-74
2023/07/14 00:07:54;;;;;;;9.60;5.22;;;18.30;90.50;;;;;;5052836;28;20013;-74
2023/07/14 00:10:32;;;;;;;9.40;5.40;;;18.30;90.60;;;;;;5035480;28;20113;-75
2023/07/14 00:13:07;;;;;;;8.50;5.68;;;18.40;90.70;;;;;;5053942;28;20035;-75
2023/07/14 00:15:35;;;;;;;6.50;4.80;;;18.40;90.70;;;;;;5054133;28;20067;-74
2023/07/14 00:18:13;;;;;;;10.25;5.15;;;18.30;90.70;;;;;;5054220;28;20033;-74
2023/07/14 00:20:39;;;;;;;6.93;4.68;;;18.40;90.70;;;;;;5053934;28;20048;-74
2023/07/14 00:23:13;;;;;;;6.85;4.38;;;18.30;90.70;;;;;;5053856;28;20059;-74
2023/07/14 00:25:40;;;;;;;8.57;4.25;;;18.30;90.70;;;;;;5052588;28;20029;-74
2023/07/14 00:28:18;;;;;;;8.13;5.03;;;18.30;90.70;;;;;;5053862;28;20013;-74
2023/07/14 00:30:44;;;;;;;8.38;4.30;;;18.30;90.70;;;;;;5052418;28;20040;-76
2023/07/14 00:33:16;;;;;;;7.38;4.32;;;18.30;90.70;;;;;;5036228;28;20481;-76
2023/07/14 00:35:42;;;;;;;7.05;4.18;;;18.30;90.80;;;;;;5052317;28;20067;-73
2023/07/14 00:38:09;;;;;;;7.47;4.72;;;18.30;90.80;;;;;;5052474;28;20056;-73
2023/07/14 00:40:37;;;;;;;10.38;4.35;;;18.30;90.80;;;;;;5052205;28;20079;-74
2023/07/14 00:43:06;;;;;;;8.32;4.38;;;18.20;90.80;;;;;;5053522;28;20107;-75
2023/07/14 00:45:34;;;;;;;9.18;4.72;;;18.20;90.80;;;;;;5048059;28;20363;-75
2023/07/14 00:48:03;;;;;;;8.38;4.85;;;18.20;90.90;;;;;;5048800;28;20117;-75
2023/07/14 00:50:47;;;;;;;8.13;4.80;;;18.20;90.90;;;;;;5031984;28;20033;-74
2023/07/14 00:53:20;;;;;;;6.38;3.70;;;18.10;91.00;;;;;;5033966;28;20032;-74
2023/07/14 00:55:49;;;;;;;7.68;3.90;;;18.10;91.10;;;;;;5032228;28;20072;-74
2023/07/14 00:58:22;;;;;;;6.30;3.17;;;18.10;91.20;;;;;;5032381;28;20022;-75
2023/07/14 01:01:21;;;;;;;8.02;4.10;;;18.00;91.20;;;;;;5032237;28;20374;-74
2023/07/14 01:03:52;;;;;;;6.80;3.92;;;18.00;91.30;;;;;;5032065;28;20077;-74
2023/07/14 01:06:21;;;;;;;8.35;3.40;;;18.00;91.30;;;;;;5033402;28;20109;-74
2023/07/14 01:09:04;;;;;;;8.07;4.32;;;18.00;91.40;;;;;;5032289;28;20028;-74
2023/07/14 01:11:59;;;;;;;7.22;3.92;;;17.90;91.50;;;;;;5033436;28;20033;-74
2023/07/14 01:14:38;;;;;;;8.25;4.03;;;17.90;91.60;;;;;;5032895;28;20056;-74
2023/07/14 01:17:04;;;;;;;6.47;3.35;;;17.80;91.70;;;;;;5033410;28;20056;-75
2023/07/14 01:19:43;;;;;;;7.60;3.97;;;17.80;91.80;;;;;;5033188;28;20033;-74
2023/07/14 01:22:34;;;;;;;6.97;3.80;;;17.80;91.90;;;;;;5034942;28;20091;-74
2023/07/14 01:25:06;;;;;;;7.45;4.13;;;17.80;92.00;;;;;;5036027;28;20398;-74
2023/07/14 01:27:31;;;;;;;6.78;3.58;;;17.70;92.10;;;;;;5037477;28;20022;-75
2023/07/14 01:29:57;;;;;;;7.45;3.42;;;17.70;92.20;;;;;;5019587;28;20516;-74
2023/07/14 01:32:31;;;;;;;7.80;3.65;;;17.70;92.40;;;;;;5037402;28;20048;-74
2023/07/14 01:34:56;;;;;;;;;;;17.80;92.50;;;;;;5037621;28;20045;-74
2023/07/14 01:37:22;;;;;;;6.93;3.70;;;17.80;92.60;;;;;;5037047;28;20272;-74
2023/07/14 01:39:50;;;;;;;6.05;3.42;;;17.70;92.50;;;;;;5019272;28;20029;-75
2023/07/14 01:42:16;;;;;;;8.98;3.45;;;17.70;92.60;;;;;;5036051;28;20050;-74
2023/07/14 01:44:44;;;;;;;6.95;3.92;;;17.70;92.70;;;;;;5035798;28;20500;-74
2023/07/14 01:47:12;;;;;;;6.60;3.95;;;17.70;92.80;;;;;;5037082;28;20029;-74
2023/07/14 01:49:50;;;;;;;8.63;4.50;;;17.70;92.80;;;;;;5035746;28;20026;-74
2023/07/14 01:52:24;;;;;;;7.78;4.28;;;17.70;92.90;;;;;;5036807;28;20026;-74
2023/07/14 01:55:01;;;;;;;8.95;4.28;;;17.70;93.10;;;;;;5036814;28;20529;-74
2023/07/14 01:57:30;;;;;;;9.23;5.75;;;17.70;93.10;;;;;;5035428;28;20107;-75
2023/07/14 02:00:00;;;;;;;10.93;5.65;;;17.70;93.20;;;;;;5036683;28;20030;-74
2023/07/14 02:02:33;;;;;;;8.07;4.25;;;17.70;93.60;;;;;;5035052;28;20046;-74
2023/07/14 02:05:04;;;;;;;7.15;4.82;;;17.70;93.30;;;;;;5036889;28;20021;-74
2023/07/14 02:07:31;;;;;;;7.72;4.80;;;17.60;93.40;;;;;;5036492;28;20025;-74
2023/07/14 02:09:56;;;;;;;6.78;4.22;;;17.60;93.40;;;;;;5018839;28;20017;-74
2023/07/14 02:12:31;;;;;;;9.00;4.88;;;17.60;93.40;;;;;;5036391;28;20080;-74
2023/07/14 02:15:09;;;;;;;8.38;5.00;;;17.60;93.50;;;;;;5036900;28;20029;-74
2023/07/14 02:17:35;;;;;;;7.30;4.90;;;17.60;93.50;;;;;;5035355;28;20091;-74
2023/07/14 02:20:10;;;;;;;9.68;5.40;;;17.50;93.60;;;;;;5038603;28;20051;-74
2023/07/14 02:22:37;;;;;;;8.15;4.65;;;17.50;93.70;;;;;;5043519;28;20080;-74
2023/07/14 02:25:07;;;;;;;9.73;5.40;;;17.40;93.70;;;;;;5034568;28;20166;-74
2023/07/14 02:27:33;;;;;;;8.10;5.07;;;17.40;93.80;;;;;;5034808;28;20014;-74
2023/07/14 02:30:21;;;;;;;8.05;5.15;;;17.40;93.90;;;;;;5034732;28;20030;-74
2023/07/14 02:32:55;;;;;;;8.00;4.50;;;17.40;94.00;;;;;;5034060;28;20017;-74
2023/07/14 02:35:33;;;;;;;8.52;5.03;;;17.30;94.10;;;;;;5035741;28;20086;-74
2023/07/14 02:38:10;;;;;;;9.70;5.10;;;17.30;94.10;;;;;;5036022;28;20018;-74
2023/07/14 02:41:05;;;;;;;6.82;4.80;;;17.30;94.30;;;;;;5035706;28;20083;-74
2023/07/14 02:43:31;;;;;;;12.52;5.47;;;17.30;94.40;;;;;;5034756;28;20426;-74
2023/07/14 02:46:03;;;;;;;7.93;4.78;;;17.30;94.50;;;;;;5035857;28;20034;-73
2023/07/14 02:48:32;;;;;;;7.78;5.10;;;17.20;94.60;;;;;;5034465;28;20018;-75
2023/07/14 02:50:58;;;;;;;8.05;4.60;;;17.20;94.60;;;;;;5034444;28;20132;-74
2023/07/14 02:53:23;;;;;;;10.55;5.70;;;17.20;94.70;;;;;;5035658;28;20493;-74
2023/07/14 02:55:49;;;;;;;9.63;4.78;;;17.20;95.00;;;;;;5017913;28;20056;-74
2023/07/14 02:58:15;;;;;;;9.20;6.15;;;17.20;94.80;;;;;;5035762;28;20030;-74
2023/07/14 03:00:40;;;;;;;9.07;5.20;;;17.20;94.90;;;;;;5017674;28;20440;-74
2023/07/14 03:03:06;;;;;;;11.73;5.38;;;17.20;94.90;;;;;;5035241;28;20118;-74
2023/07/14 03:05:32;;;;;;;9.00;5.68;;;17.20;94.90;;;;;;5017675;28;20021;-74
2023/07/14 03:07:57;;;;;;;8.35;5.43;;;17.20;95.00;;;;;;5035386;28;20017;-75
2023/07/14 03:10:23;;;;;;;12.73;5.65;;;17.20;94.90;;;;;;5017640;28;20394;-73
2023/07/14 03:12:49;;;;;;;12.10;5.78;;;17.20;94.90;;;;;;5034204;28;20069;-74
2023/07/14 03:15:14;;;;;;;9.52;5.72;;;17.10;94.90;;;;;;5017547;28;20478;-74
2023/07/14 03:17:40;;;;;;;8.23;5.13;;;17.10;95.00;;;;;;5040724;28;20040;-74
2023/07/14 03:20:10;;;;;;;11.50;5.28;;;17.10;95.00;;;;;;5053844;28;20033;-74
2023/07/14 03:22:36;;;;;;;7.25;4.97;;;17.10;95.00;;;;;;5053391;28;20061;-73
2023/07/14 03:25:01;;;;;;;7.28;4.75;;;17.10;95.10;;;;;;5054923;28;20025;-74
2023/07/14 03:27:27;;;;;;;11.27;5.43;;;17.10;95.20;;;;;;5053782;28;20492;-75
2023/07/14 03:29:54;;;;;;;7.70;5.25;;;17.00;95.20;;;;;;5055334;28;20457;-74
2023/07/14 03:32:20;;;;;;;7.43;4.75;;;17.00;95.20;;;;;;5037186;28;20029;-74
2023/07/14 03:34:46;;;;;;;11.73;5.30;;;16.90;95.20;;;;;;5037104;28;20075;-73
2023/07/14 03:37:12;;;;;;;8.75;5.43;;;16.90;95.20;;;;;;5053464;28;20029;-74
2023/07/14 03:39:38;;;;;;;10.35;6.30;;;16.90;95.30;;;;;;5054818;28;20506;-74
2023/07/14 03:42:04;;;;;;;10.95;5.63;;;16.90;95.30;;;;;;5037360;28;20036;-73
2023/07/14 03:44:32;;;;;;;7.97;5.60;;;16.80;95.40;;;;;;5053212;28;20067;-74
2023/07/14 03:46:58;;;;;;;8.98;6.18;;;16.70;95.40;;;;;;5037087;28;20021;-74
2023/07/14 03:49:25;;;;;;;8.45;5.28;;;16.80;95.50;;;;;;5053209;28;20033;-74
2023/07/14 03:51:51;;;;;;;9.32;5.00;;;16.80;95.50;;;;;;5054465;28;20093;-74
2023/07/14 03:54:17;;;;;;;10.00;5.38;;;16.70;95.50;;;;;;5054385;28;20112;-74
2023/07/14 03:56:44;;;;;;;8.98;5.55;;;16.70;95.60;;;;;;5054536;28;20503;-74
2023/07/14 03:59:10;;;;;;;9.48;5.38;;;16.70;95.70;;;;;;5052368;28;20491;-75
2023/07/14 04:01:36;;;;;;;8.73;5.30;;;16.70;95.70;;;;;;5053091;28;20040;-74
2023/07/14 04:04:01;;;;;;;10.52;5.88;;;16.70;95.80;;;;;;5053242;28;20046;-74
2023/07/14 04:06:28;;;;;;;9.10;5.68;;;16.70;95.80;;;;;;5053694;28;20107;-74
2023/07/14 04:08:56;;;;;;;11.75;5.80;;;16.70;95.90;;;;;;5053251;28;20017;-74
2023/07/14 04:11:22;;;;;;;10.10;5.68;;;16.60;95.90;;;;;;5054199;28;20029;-74
2023/07/14 04:13:48;;;;;;;10.05;5.55;;;16.60;96.00;;;;;;5052638;28;20033;-74
2023/07/14 04:16:13;;;;;;;9.00;5.65;;;16.60;96.10;;;;;;5036331;28;20047;-75
2023/07/14 04:18:39;;;;;;;8.57;4.95;;;16.60;96.20;;;;;;5052742;28;20037;-74
2023/07/14 04:21:11;;;;;;;8.60;6.10;;;16.60;96.30;;;;;;5052953;28;20095;-74
2023/07/14 04:23:39;;;;;;;7.60;5.57;;;16.60;96.40;;;;;;5054083;28;20067;-74
2023/07/14 04:26:11;;;;;;;12.00;5.82;;;16.60;96.40;;;;;;5036235;28;20108;-74
2023/07/14 04:28:37;;;;;;;9.63;5.65;;;16.60;96.50;;;;;;5053908;28;20104;-74
2023/07/14 04:31:03;;;;;;;9.60;6.10;;;16.60;96.60;;;;;;5053999;28;20108;-74
2023/07/14 04:33:29;;;;;;;8.75;5.45;;;16.70;96.70;;;;;;5045830;28;20043;-74
2023/07/14 04:35:56;;;;;;;10.55;5.72;;;16.70;96.70;;;;;;5032159;28;20033;-74
2023/07/14 04:38:23;;;;;;;10.13;5.88;;;16.80;96.80;;;;;;5032290;28;20377;-76
2023/07/14 04:40:49;;;;;;;11.82;5.97;;;16.70;96.70;;;;;;5015868;28;20587;-76
2023/07/14 04:43:16;;;;;;;8.80;5.82;;;16.70;96.80;;;;;;5015935;28;20124;-76
2023/07/14 04:45:43;;;;;;;10.65;5.53;;;16.80;96.80;;;;;;5033482;28;20025;-76
2023/07/14 04:48:16;;;;;;;8.50;5.63;;;16.80;96.80;;;;;;5033490;28;20378;-75
2023/07/14 04:50:44;;;;;;;8.93;5.55;;;16.90;96.90;;;;;;5033438;28;20468;-76
2023/07/14 04:53:11;;;;;;;8.90;5.65;;;16.80;96.90;;;;;;5032151;28;20416;-76
2023/07/14 04:55:38;;;;;;;8.85;5.22;;;16.90;96.90;;;;;;5033397;28;20470;-76
2023/07/14 04:58:04;;;;;;;9.85;5.45;;;16.90;96.90;;;;;;5033048;28;20025;-76
2023/07/14 05:00:31;;;;;;;8.10;5.20;;;16.90;96.90;;;;;;5033666;28;20025;-76
2023/07/14 05:02:57;;;;;;;7.68;5.07;;;17.00;96.90;;;;;;5033031;28;20037;-76
2023/07/14 05:05:24;;;;;;;12.55;5.45;;;17.00;96.90;;;;;;5033249;28;20025;-76
2023/07/14 05:07:50;;;;;;;9.57;5.95;;;17.00;97.00;;;;;;5032203;28;20060;-76
2023/07/14 05:10:17;;;;;;;12.20;5.47;;;17.00;97.00;;;;;;5032102;28;20031;-76
2023/07/14 05:12:42;;;;;;;8.48;5.22;;;17.10;97.00;;;;;;5033232;28;20083;-76
2023/07/14 05:15:12;;;;;;;11.70;5.35;;;17.10;96.90;;;;;;5032279;28;20386;-76
2023/07/14 05:17:41;;;;;;;8.18;5.15;;;17.10;96.90;;;;;;5015821;28;20057;-76
2023/07/14 05:20:12;;;;;;;12.80;5.68;;;17.10;96.90;;;;;;5031742;28;20025;-75
2023/07/14 05:22:38;;;;;;;9.27;5.95;;;17.20;96.90;;;;;;5031935;28;20033;-75
2023/07/14 05:25:04;;;;;;;7.55;4.55;;;17.20;96.90;;;;;;5031970;28;20109;-75
2023/07/14 05:27:30;;;;;;;10.82;4.97;;;17.20;96.80;;;;;;5031997;28;20022;-76
2023/07/14 05:29:56;;;;;;;11.18;5.05;;;17.20;96.80;;;;;;5033136;28;20022;-76
2023/07/14 05:32:24;;;;;;;8.52;5.05;;;17.30;96.70;;;;;;5033413;28;20495;-76
2023/07/14 05:34:51;;;;;;;11.13;5.13;;;17.30;96.70;;;;;;5015258;28;20040;-76
2023/07/14 05:37:18;;;;;;;7.90;4.88;;;17.30;96.60;;;;;;5015505;28;20029;-76
2023/07/14 05:39:44;;;;;;;7.20;5.00;;;17.30;96.50;;;;;;5015429;28;20030;-76
2023/07/14 05:42:11;;;;;;;10.00;5.40;;;17.30;96.50;;;;;;5031765;28;20053;-76
2023/07/14 05:44:37;;;;;;;11.60;5.53;;;17.40;96.60;;;;;;5031659;28;20025;-77
2023/07/14 05:47:03;;;;;;;10.88;5.20;;;17.40;96.40;;;;;;5033024;28;20022;-77
2023/07/14 05:49:29;;;;;;;11.30;4.93;;;17.40;96.40;;;;;;5015266;28;20502;-77
2023/07/14 05:51:55;;;;;;;8.27;4.72;;;17.40;96.30;;;;;;5036200;28;20017;-76
2023/07/14 05:54:21;;;;;;;8.73;4.45;;;17.50;96.30;;;;;;5051417;28;20033;-76
2023/07/14 05:56:47;;;;;;;7.95;4.70;;;17.50;96.30;;;;;;5032993;28;20090;-76
2023/07/14 05:59:13;;;;;;;9.93;5.88;;;17.50;96.20;;;;;;5050731;28;20499;-76
2023/07/14 06:01:39;;;;;;;7.32;4.82;;;17.50;96.10;;;;;;5052409;28;20108;-76
2023/07/14 06:04:05;;;;;;;7.13;4.32;;;17.50;96.20;;;;;;5030493;28;20132;-77
2023/07/14 06:06:31;;;;;;;7.25;4.57;;;17.50;96.20;;;;;;5033200;28;20400;-75
2023/07/14 06:08:57;;;;;;;6.88;4.30;;;17.60;96.10;;;;;;5036739;28;20481;-75
2023/07/14 06:11:23;;;;;;;7.93;4.53;;;17.60;96.00;;;;;;5055157;28;20076;-76
2023/07/14 06:13:49;;;;;;;9.23;4.85;;;17.60;95.90;;;;;;5054865;28;20068;-75
2023/07/14 06:16:15;;;;;;;8.82;5.03;;;17.70;95.80;;;;;;5054705;28;20036;-75
2023/07/14 06:18:41;;;;;;;11.35;5.05;;;17.70;95.60;;;;;;5054558;28;20094;-76
2023/07/14 06:21:08;;;;;;;7.72;4.32;;;17.70;95.30;;;;;;5054424;28;20040;-75
2023/07/14 06:23:34;;;;;;;9.77;4.95;;;17.70;95.20;;;;;;5038036;28;20396;-75
2023/07/14 06:25:59;;;;;;;9.60;4.88;;;17.70;94.80;;;;;;5054439;28;20037;-76
2023/07/14 06:28:26;;;;;;;8.02;4.22;;;17.70;94.70;;;;;;5054583;28;20112;-76
2023/07/14 06:31:01;;;;;;;10.10;3.85;;;17.70;94.70;;;;;;5054765;28;20031;-82
2023/07/14 06:33:27;;;;;;;7.00;3.53;;;17.70;94.70;;;;;;5054493;28;20032;-82
2023/07/14 06:35:55;;;;;;;7.35;3.15;;;17.70;94.30;;;;;;5037686;28;20066;-82
2023/07/14 06:38:21;;;;;;;9.63;4.18;;;17.70;94.20;;;;;;5054543;28;20608;-81
2023/07/14 06:40:48;;;;;;;10.82;4.40;;;17.80;94.00;;;;;;5048968;28;20745;-81
2023/07/14 06:43:14;;;;;;;7.88;3.53;;;17.80;93.90;;;;;;5048981;28;20025;-81
2023/07/14 06:45:39;;;;;;;11.73;3.40;;;17.80;93.80;;;;;;5034095;28;20037;-82
2023/07/14 06:48:05;;;;;;;9.35;3.72;;;17.90;93.80;;;;;;5038501;28;20056;-82
2023/07/14 06:50:31;;;;;;;7.03;3.40;;;17.90;93.70;;;;;;5037744;28;20037;-83
2023/07/14 06:52:56;;;;;;;7.13;3.38;;;17.90;93.70;;;;;;5055516;28;20033;-81
2023/07/14 06:55:22;;;;;;;7.78;3.75;;;18.00;93.80;;;;;;5037572;28;20079;-80
2023/07/14 06:57:47;;;;;;;8.05;3.63;;;18.10;93.60;;;;;;5055367;28;20111;-79
2023/07/14 07:00:14;;;;;;;10.55;4.45;;;18.20;93.40;;;;;;5055322;28;20025;-82
2023/07/14 07:02:39;;;;;;;7.35;4.22;;;18.30;93.00;;;;;;5055172;28;20060;-82
2023/07/14 07:05:07;;;;;;;10.18;4.57;;;18.30;92.80;;;;;;5054026;28;20021;-81
2023/07/14 07:07:34;;;;;;;8.88;3.88;;;18.30;92.70;;;;;;5054039;28;20071;-83
2023/07/14 07:09:59;;;;;;;7.95;3.50;;;18.30;92.60;;;;;;5039391;28;20366;-83
2023/07/14 07:12:25;;;;;;;7.65;3.97;;;18.40;92.60;;;;;;5035451;28;20087;-83
2023/07/14 07:14:51;;;;;;;5.97;3.63;;;18.40;92.50;;;;;;5035291;28;20477;-82
2023/07/14 07:17:17;;;;;;;6.70;3.70;;;18.40;92.20;;;;;;5033959;28;20124;-82
2023/07/14 07:19:43;;;;;;;8.63;3.70;;;18.40;92.00;;;;;;5034615;28;20108;-84
2023/07/14 07:22:09;;;;;;;7.80;3.85;;;18.40;92.10;;;;;;5000973;28;20459;-83
2023/07/14 07:24:34;;;;;;;9.65;3.63;;;18.50;91.80;;;;;;5042353;28;20048;-83
2023/07/14 07:27:02;;;;;;;6.57;2.85;;;18.50;91.70;;;;;;5045004;28;20026;-83
2023/07/14 07:29:30;;;;;;;8.45;3.45;;;18.50;91.70;;;;;;5047502;28;20032;-84
2023/07/14 07:31:56;;;;;;;7.22;2.50;;;18.60;91.50;;;;;;5050900;28;20520;-85
2023/07/14 07:34:22;;;;;;;8.10;2.28;;;18.60;91.30;;;;;;5040358;28;20560;-82
2023/07/14 07:36:47;;;;;;;4.32;2.38;;;18.60;91.10;;;;;;5037715;28;20112;-81
2023/07/14 07:39:13;;;;;;;5.88;2.70;;;18.70;90.60;;;;;;5033533;28;20098;-83
2023/07/14 07:41:39;;;;;;;5.40;2.20;;;18.70;90.30;;;;;;5017172;28;20040;-82
2023/07/14 07:44:08;;;;;;;7.10;2.20;;;18.80;90.00;;;;;;5033632;28;20111;-81
2023/07/14 07:46:35;;;;;;;6.10;2.42;;;18.80;90.00;;;;;;5033340;28;20018;-82
2023/07/14 07:49:01;;;;;;;4.53;1.80;;;18.90;89.80;;;;;;5033286;28;20120;-81
2023/07/14 07:51:27;;;;;;;6.03;2.13;;;18.90;90.10;;;;;;5033244;28;20128;-82
2023/07/14 07:53:52;;;;;;;4.32;1.67;;;19.00;88.50;;;;;;5035807;28;20063;-82
2023/07/14 07:56:18;;;;;;;6.85;2.15;;;19.10;87.90;;;;;;5049347;28;20481;-84
2023/07/14 07:58:44;;;;;;;5.00;1.90;;;19.10;86.50;;;;;;5052695;28;20056;-82
2023/07/14 08:01:17;;;;;;;7.15;2.00;;;19.20;86.40;;;;;;5054218;28;20051;-82
2023/07/14 08:03:43;;;;;;;6.47;1.80;;;19.30;86.70;;;;;;5053816;28;20119;-81
2023/07/14 08:06:09;;;;;;;4.60;1.55;;;19.40;86.30;;;;;;5052857;28;20124;-81
2023/07/14 08:08:34;;;;;;;5.45;1.70;;;19.50;86.90;;;;;;5036286;28;20381;-80
2023/07/14 08:11:01;;;;;;;6.07;1.40;;;19.60;85.50;;;;;;5052666;28;20057;-83
2023/07/14 08:13:28;;;;;;;3.80;1.45;;;19.70;85.90;;;;;;5054240;28;20021;-82
2023/07/14 08:15:55;;;;;;;5.72;1.85;;;19.90;85.60;;;;;;5052260;28;20036;-82
2023/07/14 08:18:22;;;;;;;3.50;1.10;;;20.00;84.20;;;;;;5042477;28;20366;-82
2023/07/14 08:20:51;;;;;;;5.15;1.58;;;20.00;83.10;;;;;;5041612;28;20176;-83
2023/07/14 08:23:20;;;;;;;3.38;1.15;;;20.10;82.00;;;;;;5034109;28;20088;-82
2023/07/14 08:25:57;;;;;;;3.95;1.23;;;20.10;81.20;;;;;;5032441;28;20470;-82
2023/07/14 08:28:23;;;;;;;6.78;1.92;;;20.20;81.20;;;;;;5033722;28;20038;-82
2023/07/14 08:30:51;;;;;;;2.95;1.35;;;20.30;81.00;;;;;;5031948;28;20390;-81
2023/07/14 08:33:20;;;;;;;4.07;1.58;;;20.40;79.10;;;;;;5033762;28;20010;-83
2023/07/14 08:35:49;;;;;;;3.22;0.90;;;20.50;78.90;;;;;;5032569;28;20027;-83
2023/07/14 08:38:15;;;;;;;4.22;1.30;;;20.60;79.80;;;;;;5033567;28;20057;-82
2023/07/14 08:40:47;;;;;;;4.13;1.27;;;20.70;77.80;;;;;;5032459;28;20115;-82
2023/07/14 08:43:22;;;;;;;4.22;1.30;;;20.80;77.40;;;;;;5033494;28;20112;-80
2023/07/14 08:46:14;;;;;;;3.83;1.17;;;20.90;76.80;;;;;;5033698;28;20025;-81
2023/07/14 08:48:48;;;;;;;5.63;1.27;;;20.90;76.10;;;;;;5033620;28;20107;-83
2023/07/14 08:51:32;;;;;;;3.38;1.40;;;21.00;76.10;;;;;;5033495;28;20025;-81
2023/07/14 08:54:09;;;;;;;5.05;1.25;;;21.10;75.60;;;;;;5033535;28;20030;-85
2023/07/14 08:56:37;;;;;;;2.55;0.90;;;21.30;76.40;;;;;;5033473;28;20359;-83
2023/07/14 08:59:05;;;;;;;3.78;1.27;;;21.40;75.00;;;;;;5015737;28;20030;-82
2023/07/14 09:01:36;;;;;;;3.08;1.13;;;21.50;73.30;;;;;;5033207;28;20021;-82
2023/07/14 09:04:11;;;;;;;5.70;1.38;;;21.50;72.70;;;;;;5031749;28;20055;-83
2023/07/14 09:06:38;;;;;;;5.28;1.35;;;21.60;72.50;;;;;;5032289;28;20067;-81
2023/07/14 09:09:14;;;;;;;4.95;1.35;;;21.70;72.50;;;;;;5033399;28;20026;-82
2023/07/14 09:11:58;;;;;;;3.03;1.10;;;21.80;71.10;;;;;;5034461;28;20076;-81
2023/07/14 09:14:24;;;;;;;;;;;22.00;71.30;;;;;;5062850;28;20037;-81
2023/07/14 09:17:01;;;;;;;3.67;1.10;;;22.10;70.50;;;;;;5041763;28;19992;-84
2023/07/14 09:19:58;;;;;;;4.20;1.10;;;22.10;70.10;;;;;;5041044;28;20025;-83
2023/07/14 09:22:46;;;;;;;3.65;1.30;;;22.20;69.30;;;;;;5031783;28;20026;-82
2023/07/14 09:25:18;;;;;;;4.18;1.20;;;22.30;68.10;;;;;;5033378;28;20025;-83
2023/07/14 09:27:47;;;;;;;4.30;1.65;;;22.30;67.10;;;;;;5031654;28;20428;-85
2023/07/14 09:30:27;;;;;;;4.38;1.40;;;22.40;66.40;;;;;;5032889;28;20026;-84
2023/07/14 09:33:02;;;;;;;4.18;1.58;;;22.30;66.20;;;;;;5031701;28;20481;-83
2023/07/14 09:35:31;;;;;;;2.80;0.95;;;22.40;67.00;;;;;;5031676;28;20428;-82
2023/07/14 09:38:22;;;;;;;4.63;1.52;;;22.50;66.50;;;;;;5032996;28;20030;-81
2023/07/14 09:40:53;;;;;;;5.10;1.50;;;22.60;65.80;;;;;;5032815;28;20022;-84
2023/07/14 09:43:19;;;;;;;3.40;1.10;;;22.60;66.10;;;;;;5033815;28;20454;-82
2023/07/14 09:45:45;;;;;;;4.72;1.30;;;22.70;65.50;;;;;;5019215;28;20052;-82
2023/07/14 09:48:16;;;;;;;3.53;1.17;;;22.70;65.30;;;;;;5035500;28;20482;-83
2023/07/14 09:51:17;;;;;;;3.45;0.90;;;22.80;65.00;;;;;;5035595;28;20033;-82
2023/07/14 09:53:58;;;;;;;3.47;1.35;;;22.80;64.70;;;;;;5034381;28;20124;-82
2023/07/14 09:56:31;;;;;;;4.45;1.40;;;22.90;63.70;;;;;;5036767;28;20136;-82
2023/07/14 09:59:03;;;;;;;3.67;1.10;;;22.90;63.70;;;;;;5036541;28;20473;-81
2023/07/14 10:01:29;;;;;;;4.63;0.90;;;23.00;63.90;;;;;;5037520;28;20095;-81
2023/07/14 10:04:00;;;;;;;4.28;1.35;;;23.00;64.20;;;;;;5047155;28;20042;-79
2023/07/14 10:06:28;;;;;;;2.53;1.05;;;23.10;64.30;;;;;;5045710;28;20083;-80
2023/07/14 10:08:59;;;;;;;2.22;0.93;;;23.10;64.50;;;;;;5041606;28;20043;-81
2023/07/14 10:11:29;;;;;;;4.13;1.15;;;23.10;64.60;;;;;;5040309;28;20056;-80
2023/07/14 10:13:59;;;;;;;4.13;0.90;;;23.20;64.70;;;;;;5046498;28;20027;-81
2023/07/14 10:16:32;;;;;;;3.33;0.93;;;23.30;64.70;;;;;;5045453;28;20107;-82
2023/07/14 10:19:03;;;;;;;2.13;0.93;;;23.30;64.80;;;;;;5048056;28;20063;-83
2023/07/14 10:21:32;;;;;;;6.32;0.90;;;23.40;65.10;;;;;;5055912;28;20108;-83
2023/07/14 10:24:05;;;;;;;2.80;1.00;;;23.50;65.00;;;;;;5053413;28;20474;-85
2023/07/14 10:26:34;;;;;;;2.28;0.75;;;23.50;64.80;;;;;;5047954;28;20021;-81
2023/07/14 10:29:04;;;;;;;3.72;1.10;;;23.60;64.80;;;;;;5036163;28;20074;-80
2023/07/14 10:31:36;;;;;;;3.75;1.02;;;23.60;64.50;;;;;;5036285;28;20176;-81
2023/07/14 10:34:20;;;;;;;4.65;1.10;;;23.70;64.40;;;;;;5036026;28;20025;-80
2023/07/14 10:36:46;;;;;;;3.83;0.90;;;23.70;64.40;;;;;;5034696;28;20041;-80
2023/07/14 10:39:22;;;;;;;4.13;1.10;;;23.80;63.80;;;;;;5035773;28;20033;-82
2023/07/14 10:41:48;;;;;;;3.55;1.15;;;23.90;63.70;;;;;;5035628;28;20116;-81
2023/07/14 10:44:26;;;;;;;2.72;0.80;;;23.90;63.60;;;;;;5017961;28;20029;-80
2023/07/14 10:46:56;;;;;;;2.42;0.98;;;23.90;63.40;;;;;;5035679;28;20127;-80
2023/07/14 10:49:24;;;;;;;3.83;0.90;;;23.90;63.20;;;;;;5035669;28;20025;-80
2023/07/14 10:52:03;;;;;;;3.08;0.90;;;23.90;63.30;;;;;;5034318;28;20053;-82
2023/07/14 10:54:54;;;;;;;2.97;1.10;;;23.90;63.30;;;;;;5034559;28;20474;-79
2023/07/14 10:57:29;;;;;;;2.22;0.93;;;23.90;63.20;;;;;;5034310;28;20025;-80
2023/07/14 11:00:00;;;;;;;2.72;0.90;;;23.90;63.00;;;;;;5035410;28;20029;-81
2023/07/14 11:02:41;;;;;;;3.92;0.82;;;23.90;63.20;;;;;;5034206;28;20374;-82
2023/07/14 11:05:13;;;;;;;2.33;0.85;;;23.90;63.10;;;;;;5033968;28;20057;-82
2023/07/14 11:07:39;;;;;;;4.03;0.93;;;23.90;63.20;;;;;;5035570;28;20076;-82
2023/07/14 11:10:15;;;;;;;4.68;0.80;;;24.00;63.20;;;;;;5044635;28;20029;-82
2023/07/14 11:13:07;;;;;;;3.67;1.00;;;24.00;63.00;;;;;;5054603;28;20040;-81
2023/07/14 11:15:46;;;;;;;1.67;0.80;;;24.00;62.90;;;;;;5055081;28;20083;-80
2023/07/14 11:18:29;;;;;;;3.25;0.80;;;24.00;62.80;;;;;;5055009;28;20032;-82
2023/07/14 11:21:04;;;;;;;2.00;0.75;;;24.00;62.40;;;;;;5071279;28;20028;-83
2023/07/14 11:23:53;;;;;;;2.67;0.85;;;24.00;62.50;;;;;;5074967;28;20078;-81
2023/07/14 11:26:29;;;;;;;3.97;0.90;;;24.00;62.30;;;;;;5055161;28;20017;-81
2023/07/14 11:29:07;;;;;;;4.15;1.05;;;24.00;62.40;;;;;;5056092;28;20025;-81
2023/07/14 11:31:37;;;;;;;4.10;1.30;;;24.00;62.60;;;;;;5048129;28;20049;-81
2023/07/14 11:34:12;;;;;;;2.72;0.80;;;24.10;62.70;;;;;;5065970;28;20032;-81
2023/07/14 11:36:53;;;;;;;2.70;0.80;;;24.10;62.60;;;;;;5063516;28;20036;-82
2023/07/14 11:39:40;;;;;;;2.97;0.82;;;24.10;62.60;;;;;;5074401;28;20035;-81
2023/07/14 11:42:22;;;;;;;2.58;0.80;;;24.10;62.50;;;;;;5073441;28;20423;-82
2023/07/14 11:44:50;;;;;;;3.20;0.90;;;24.20;62.70;;;;;;5074380;28;20013;-82
2023/07/14 11:47:33;;;;;;;2.97;0.90;;;24.30;62.80;;;;;;5063856;28;20024;-81
2023/07/14 11:50:02;;;;;;;2.80;0.93;;;24.40;62.80;;;;;;5072322;28;20093;-80
2023/07/14 11:52:30;;;;;;;2.63;0.98;;;24.60;62.70;;;;;;5074266;28;20029;-82
2023/07/14 11:54:55;;;;;;;4.30;0.90;;;24.70;62.20;;;;;;5071335;28;20021;-81
2023/07/14 11:57:22;;;;;;;4.00;1.15;;;24.80;61.80;;;;;;5057065;28;20033;-80
2023/07/14 12:00:10;;;;;;;2.88;0.90;;;24.70;61.50;;;;;;5059438;28;20451;-82
2023/07/14 12:02:38;;;;;;;4.20;1.00;;;24.70;61.60;;;;;;5052244;28;20033;-80
2023/07/14 12:05:19;;;;;;;3.17;1.02;;;24.70;61.70;;;;;;5060583;28;20087;-81
2023/07/14 12:08:05;;;;;;;4.85;1.00;;;24.60;61.60;;;;;;5061083;28;20037;-82
2023/07/14 12:10:42;;;;;;;3.13;1.05;;;24.60;61.70;;;;;;5058941;28;20069;-76
2023/07/14 12:13:32;;;;;;;2.25;0.75;;;24.70;61.80;;;;;;5041611;28;20029;-77
2023/07/14 12:16:01;;;;;;;3.63;0.90;;;24.80;61.70;;;;;;5069311;28;20016;-77
2023/07/14 12:18:34;;;;;;;4.15;1.27;;;25.00;61.70;;;;;;5054688;28;20389;-76
2023/07/14 12:21:41;;;;;;;2.35;0.70;;;25.10;61.70;;;;;;5053776;28;20025;-76
2023/07/14 12:24:16;;;;;;;3.70;0.95;;;25.40;61.60;;;;;;5060194;28;20500;-77
2023/07/14 12:26:56;;;;;;;2.97;0.82;;;25.70;61.70;;;;;;5051968;28;20025;-77
2023/07/14 12:29:22;;;;;;;3.33;0.80;;;25.90;61.40;;;;;;5058478;28;20079;-77
2023/07/14 12:31:56;;;;;;;4.78;1.02;;;26.00;61.20;;;;;;5038862;28;20032;-77
2023/07/14 12:34:30;;;;;;;1.90;0.70;;;26.30;61.00;;;;;;5055785;28;20084;-79
2023/07/14 12:36:58;;;;;;;2.45;0.75;;;26.40;60.70;;;;;;5057534;28;20021;-77
2023/07/14 12:39:24;;;;;;;1.80;0.80;;;26.70;60.30;;;;;;5053099;28;20044;-78
2023/07/14 12:41:53;;;;;;;2.85;0.70;;;26.80;59.60;;;;;;5049903;28;20029;-77
2023/07/14 12:44:31;;;;;;;3.10;0.75;;;27.00;59.20;;;;;;5057883;28;20381;-77
2023/07/14 12:46:57;;;;;;;1.75;0.73;;;27.30;58.90;;;;;;5050720;28;20419;-81
2023/07/14 12:49:26;;;;;;;2.70;0.80;;;27.60;58.50;;;;;;5049639;28;20072;-81
2023/07/14 12:51:52;;;;;;;3.40;0.70;;;27.90;57.70;;;;;;5047766;28;20047;-81
2023/07/14 12:54:25;;;;;;;2.85;0.90;;;28.10;57.50;;;;;;5053603;28;20051;-82
2023/07/14 12:56:53;;;;;;;2.28;0.70;;;28.30;56.90;;;;;;5047373;28;20082;-82
2023/07/14 12:59:18;;;;;;;4.38;0.80;;;28.50;56.60;;;;;;5042131;28;20078;-80
2023/07/14 13:01:45;;;;;;;3.33;0.93;;;28.80;56.20;;;;;;5034589;28;20488;-82